createdAt,value
2018-10-03T00:01:04.930Z,1.30
2018-10-03T00:03:07.212Z,1.40
2018-10-03T00:05:09.449Z,1.27
2018-10-03T00:07:11.695Z,1.27
2018-10-03T00:09:13.957Z,1.50
2018-10-03T00:11:16.208Z,1.87
2018-10-03T00:13:18.474Z,1.60
2018-10-03T00:15:20.746Z,1.00
2018-10-03T00:17:22.982Z,1.20
2018-10-03T00:19:25.266Z,1.37
2018-10-03T00:21:27.507Z,1.30
2018-10-03T00:23:29.808Z,1.33
2018-10-03T00:25:32.380Z,1.27
2018-10-03T00:27:34.613Z,1.40
2018-10-03T00:29:36.879Z,1.53
2018-10-03T00:31:39.112Z,1.30
2018-10-03T00:33:41.687Z,1.10
2018-10-03T00:35:43.913Z,1.30
2018-10-03T00:37:46.158Z,1.20
2018-10-03T00:39:48.418Z,1.20
2018-10-03T00:41:50.714Z,1.30
2018-10-03T00:43:52.936Z,1.30
2018-10-03T00:45:55.169Z,1.17
2018-10-03T00:47:57.470Z,1.53
2018-10-03T00:49:59.720Z,1.40
2018-10-03T00:52:01.995Z,1.07
2018-10-03T00:54:04.239Z,1.43
2018-10-03T00:56:06.516Z,1.37
2018-10-03T00:58:08.783Z,1.50
2018-10-03T01:00:11.041Z,1.17
2018-10-03T01:02:13.320Z,1.00
2018-10-03T01:04:15.554Z,1.60
2018-10-03T01:06:17.774Z,1.30
2018-10-03T01:08:20.051Z,1.40
2018-10-03T01:10:22.336Z,1.33
2018-10-03T01:12:24.600Z,1.33
2018-10-03T01:14:26.831Z,1.40
2018-10-03T01:16:29.114Z,1.47
2018-10-03T01:18:31.348Z,1.23
2018-10-03T01:20:33.636Z,1.40
2018-10-03T01:22:35.923Z,1.40
2018-10-03T01:24:38.170Z,1.20
2018-10-03T01:26:40.409Z,1.30
2018-10-03T01:28:42.691Z,1.40
2018-10-03T01:30:44.930Z,1.60
2018-10-03T01:32:47.173Z,1.10
2018-10-03T01:34:49.418Z,1.50
2018-10-03T01:36:51.684Z,1.37
2018-10-03T01:38:53.949Z,1.33
2018-10-03T01:40:56.197Z,1.10
2018-10-03T01:42:58.505Z,1.30
2018-10-03T01:45:00.754Z,1.33
2018-10-03T01:47:02.991Z,1.70
2018-10-03T01:49:05.247Z,1.63
2018-10-03T01:51:07.519Z,1.50
2018-10-03T01:53:09.781Z,1.13
2018-10-03T01:55:12.027Z,1.30
2018-10-03T01:57:14.261Z,1.57
2018-10-03T01:59:16.533Z,1.47
2018-10-03T02:01:19.158Z,1.60
2018-10-03T02:03:21.390Z,1.20
2018-10-03T02:05:23.669Z,1.77
2018-10-03T02:07:25.915Z,1.40
2018-10-03T02:09:28.197Z,1.67
2018-10-03T02:11:30.432Z,1.57
2018-10-03T02:13:32.666Z,1.23
2018-10-03T02:15:34.931Z,1.63
2018-10-03T02:17:37.173Z,1.40
2018-10-03T02:19:39.435Z,1.50
2018-10-03T02:21:41.737Z,1.30
2018-10-03T02:23:43.971Z,1.60
2018-10-03T02:25:46.251Z,1.37
2018-10-03T02:27:48.481Z,1.40
2018-10-03T02:29:50.741Z,1.53
2018-10-03T02:31:52.967Z,1.33
2018-10-03T02:33:55.238Z,1.43
2018-10-03T02:35:57.525Z,1.73
2018-10-03T02:37:59.750Z,1.13
2018-10-03T02:40:02.032Z,1.20
2018-10-03T02:42:04.279Z,1.17
2018-10-03T02:44:06.539Z,1.20
2018-10-03T02:46:08.811Z,1.50
2018-10-03T02:48:11.045Z,1.47
2018-10-03T02:50:13.267Z,2.00
2018-10-03T02:52:15.579Z,1.60
2018-10-03T02:54:17.847Z,1.10
2018-10-03T02:56:20.085Z,1.50
2018-10-03T02:58:22.349Z,1.43
2018-10-03T03:00:24.581Z,1.47
2018-10-03T03:02:26.842Z,1.50
2018-10-03T03:04:29.094Z,1.20
2018-10-03T03:06:31.355Z,1.80
2018-10-03T03:08:33.637Z,1.20
2018-10-03T03:10:35.820Z,1.27
2018-10-03T03:12:38.100Z,1.10
2018-10-03T03:14:40.318Z,1.30
2018-10-03T03:16:42.564Z,1.63
2018-10-03T03:18:44.832Z,1.20
2018-10-03T03:20:47.060Z,2.00
2018-10-03T03:22:49.318Z,1.20
2018-10-03T03:24:51.599Z,1.13
2018-10-03T03:26:53.828Z,1.80
2018-10-03T03:28:56.073Z,1.30
2018-10-03T03:30:58.355Z,1.33
2018-10-03T03:33:00.645Z,1.20
2018-10-03T03:35:02.872Z,1.50
2018-10-03T03:37:05.128Z,1.40
2018-10-03T03:39:07.361Z,1.53
2018-10-03T03:41:09.618Z,1.30
2018-10-03T03:43:11.834Z,1.30
2018-10-03T03:45:14.093Z,1.23
2018-10-03T03:47:16.340Z,1.50
2018-10-03T03:49:18.596Z,1.33
2018-10-03T03:51:20.872Z,1.33
2018-10-03T03:53:23.110Z,1.37
2018-10-03T03:55:25.377Z,1.37
2018-10-03T03:57:27.618Z,1.40
2018-10-03T03:59:29.847Z,1.57
2018-10-03T04:01:32.122Z,1.20
2018-10-03T04:03:34.351Z,1.10
2018-10-03T04:05:36.631Z,1.20
2018-10-03T04:07:38.877Z,1.03
2018-10-03T04:09:41.099Z,2.13
2018-10-03T04:11:43.380Z,1.30
2018-10-03T04:13:45.611Z,1.60
2018-10-03T04:15:47.850Z,1.33
2018-10-03T04:17:50.129Z,1.40
2018-10-03T04:19:52.349Z,1.20
2018-10-03T04:21:54.601Z,1.43
2018-10-03T04:23:56.840Z,1.27
2018-10-03T04:25:59.113Z,1.50
2018-10-03T04:28:01.379Z,1.27
2018-10-03T04:30:03.599Z,1.37
2018-10-03T04:32:05.830Z,1.13
2018-10-03T04:34:08.082Z,1.47
2018-10-03T04:36:10.363Z,1.63
2018-10-03T04:38:12.594Z,1.23
2018-10-03T04:40:14.824Z,1.40
2018-10-03T04:42:17.141Z,1.10
2018-10-03T04:44:19.356Z,1.43
2018-10-03T04:46:21.638Z,1.20
2018-10-03T04:48:23.856Z,1.70
2018-10-03T04:50:26.141Z,1.03
2018-10-03T04:52:28.476Z,1.37
2018-10-03T04:54:30.679Z,1.53
2018-10-03T04:56:32.916Z,1.00
2018-10-03T04:58:35.187Z,1.80
2018-10-03T05:00:37.462Z,1.30
2018-10-03T05:02:39.745Z,1.43
2018-10-03T05:04:42.015Z,1.30
2018-10-03T05:06:44.242Z,1.30
2018-10-03T05:08:46.510Z,1.30
2018-10-03T05:10:48.766Z,1.40
2018-10-03T05:12:50.986Z,1.40
2018-10-03T05:14:53.248Z,1.50
2018-10-03T05:16:55.475Z,1.43
2018-10-03T05:18:57.730Z,1.13
2018-10-03T05:20:59.969Z,1.40
2018-10-03T05:23:02.222Z,1.60
2018-10-03T05:25:04.447Z,1.43
2018-10-03T05:27:06.689Z,1.20
2018-10-03T05:29:08.935Z,1.37
2018-10-03T05:31:11.210Z,1.40
2018-10-03T05:33:13.520Z,1.37
2018-10-03T05:35:15.760Z,1.83
2018-10-03T05:37:18.052Z,1.37
2018-10-03T05:39:20.324Z,1.17
2018-10-03T05:41:22.575Z,1.40
2018-10-03T05:43:24.806Z,1.13
2018-10-03T05:45:27.077Z,1.93
2018-10-03T05:47:29.316Z,1.60
2018-10-03T05:49:31.617Z,1.40
2018-10-03T05:51:33.868Z,1.30
2018-10-03T05:53:36.106Z,1.20
2018-10-03T05:55:38.340Z,1.43
2018-10-03T05:57:40.630Z,1.30
2018-10-03T05:59:42.871Z,1.43
2018-10-03T06:01:45.144Z,1.30
2018-10-03T06:03:47.366Z,1.57
2018-10-03T06:05:49.643Z,1.03
2018-10-03T06:07:51.868Z,1.17
2018-10-03T06:09:54.111Z,1.27
2018-10-03T06:11:56.399Z,1.40
2018-10-03T06:13:58.667Z,1.30
2018-10-03T06:16:00.976Z,1.53
2018-10-03T06:18:03.200Z,1.30
2018-10-03T06:20:05.474Z,1.57
2018-10-03T06:22:07.722Z,1.70
2018-10-03T06:24:09.963Z,1.40
2018-10-03T06:26:12.230Z,1.60
2018-10-03T06:28:14.564Z,1.23
2018-10-03T06:30:16.749Z,1.70
2018-10-03T06:32:19.017Z,1.20
2018-10-03T06:34:21.325Z,1.10
2018-10-03T06:36:23.567Z,1.20
2018-10-03T06:38:25.813Z,1.37
2018-10-03T06:40:28.148Z,1.27
2018-10-03T06:42:30.339Z,1.17
2018-10-03T06:44:32.633Z,2.83
2018-10-03T06:46:34.919Z,1.33
2018-10-03T06:48:37.231Z,1.07
2018-10-03T06:50:39.451Z,1.47
2018-10-03T06:52:41.699Z,1.33
2018-10-03T06:54:44.303Z,1.23
2018-10-03T06:56:46.583Z,1.37
2018-10-03T06:58:48.832Z,1.60
2018-10-03T07:00:51.076Z,1.20
2018-10-03T07:02:53.305Z,1.30
2018-10-03T07:04:55.553Z,1.30
2018-10-03T07:06:57.793Z,1.80
2018-10-03T07:09:00.052Z,1.10
2018-10-03T07:11:02.322Z,1.40
2018-10-03T07:13:04.583Z,1.30
2018-10-03T07:15:06.839Z,1.17
2018-10-03T07:17:09.085Z,1.50
2018-10-03T07:19:11.349Z,1.37
2018-10-03T07:21:13.621Z,1.20
2018-10-03T07:23:15.928Z,1.30
2018-10-03T07:25:18.161Z,1.30
2018-10-03T07:27:20.443Z,1.30
2018-10-03T07:29:22.716Z,1.30
2018-10-03T07:31:24.973Z,1.43
2018-10-03T07:33:27.261Z,1.10
2018-10-03T07:35:29.487Z,1.77
2018-10-03T07:37:31.748Z,1.73
2018-10-03T07:39:33.984Z,1.50
2018-10-03T07:41:36.226Z,1.87
2018-10-03T07:43:38.511Z,1.63
2018-10-03T07:45:40.739Z,1.70
2018-10-03T07:47:42.984Z,0.97
2018-10-03T07:49:45.238Z,1.40
2018-10-03T07:51:47.466Z,1.63
2018-10-03T07:53:49.737Z,1.10
2018-10-03T07:55:51.993Z,1.23
2018-10-03T07:57:54.777Z,1.30
2018-10-03T07:59:56.997Z,1.30
2018-10-03T08:01:59.264Z,1.40
2018-10-03T08:04:01.558Z,1.37
2018-10-03T08:06:03.797Z,1.40
2018-10-03T08:08:06.057Z,1.40
2018-10-03T08:10:08.401Z,1.50
2018-10-03T08:12:10.553Z,1.47
2018-10-03T08:14:12.824Z,1.20
2018-10-03T08:16:15.109Z,1.23
2018-10-03T08:18:17.377Z,1.33
2018-10-03T08:20:19.660Z,1.10
2018-10-03T08:22:21.925Z,1.40
2018-10-03T08:24:24.268Z,1.50
2018-10-03T08:26:26.469Z,1.67
2018-10-03T08:28:28.714Z,1.20
2018-10-03T08:30:31.006Z,1.10
2018-10-03T08:32:33.354Z,1.40
2018-10-03T08:34:35.537Z,1.33
2018-10-03T08:36:37.818Z,1.20
2018-10-03T08:38:40.188Z,1.40
2018-10-03T08:40:43.482Z,1.30
2018-10-03T08:42:45.704Z,1.40
2018-10-03T08:44:47.995Z,1.43
2018-10-03T08:46:50.227Z,1.40
2018-10-03T08:48:52.461Z,1.23
2018-10-03T08:50:54.752Z,1.47
2018-10-03T08:52:56.984Z,1.27
2018-10-03T08:54:59.223Z,1.10
2018-10-03T08:57:01.496Z,1.13
2018-10-03T08:59:03.720Z,1.30
2018-10-03T09:01:05.997Z,1.20
2018-10-03T09:03:08.268Z,1.50
2018-10-03T09:05:10.538Z,1.17
2018-10-03T09:07:12.816Z,1.93
2018-10-03T09:09:15.062Z,1.00
2018-10-03T09:11:17.331Z,1.23
2018-10-03T09:13:19.602Z,1.20
2018-10-03T09:15:21.837Z,1.47
2018-10-03T09:17:24.110Z,1.20
2018-10-03T09:19:26.353Z,1.00
2018-10-03T09:21:28.669Z,1.20
2018-10-03T09:23:31.322Z,1.20
2018-10-03T09:25:33.570Z,1.10
2018-10-03T09:27:35.810Z,1.10
2018-10-03T09:29:38.070Z,1.23
2018-10-03T09:31:40.322Z,1.20
2018-10-03T09:33:42.574Z,1.10
2018-10-03T09:35:44.854Z,1.10
2018-10-03T09:37:47.090Z,1.40
2018-10-03T09:39:49.325Z,1.10
2018-10-03T09:41:51.586Z,1.10
2018-10-03T09:43:53.866Z,1.03
2018-10-03T09:45:56.100Z,1.40
2018-10-03T09:47:58.336Z,1.20
2018-10-03T09:50:00.614Z,1.10
2018-10-03T09:52:02.862Z,1.50
2018-10-03T09:54:05.120Z,1.10
2018-10-03T09:56:07.416Z,1.17
2018-10-03T09:58:09.629Z,1.33
2018-10-03T10:00:11.886Z,1.33
2018-10-03T10:02:14.120Z,1.60
2018-10-03T10:04:16.369Z,1.10
2018-10-03T10:06:18.654Z,1.30
2018-10-03T10:08:20.898Z,1.13
2018-10-03T10:10:23.412Z,1.07
2018-10-03T10:12:25.417Z,1.30
2018-10-03T10:14:27.628Z,1.20
2018-10-03T10:16:29.901Z,1.00
2018-10-03T10:18:32.143Z,1.23
2018-10-03T10:20:34.475Z,1.30
2018-10-03T10:22:36.645Z,1.30
2018-10-03T10:24:38.897Z,0.90
2018-10-03T10:26:41.162Z,1.23
2018-10-03T10:28:43.406Z,1.23
2018-10-03T10:30:45.641Z,1.50
2018-10-03T10:32:47.953Z,1.10
2018-10-03T10:34:50.139Z,1.10
2018-10-03T10:36:52.431Z,1.20
2018-10-03T10:38:54.717Z,1.20
2018-10-03T10:40:57.043Z,0.87
2018-10-03T10:42:59.260Z,1.30
2018-10-03T10:45:01.518Z,1.37
2018-10-03T10:47:03.792Z,1.20
2018-10-03T10:49:06.035Z,1.50
2018-10-03T10:51:08.275Z,1.00
2018-10-03T10:53:10.529Z,1.00
2018-10-03T10:55:12.797Z,1.00
2018-10-03T10:57:15.062Z,1.07
2018-10-03T10:59:17.321Z,1.00
2018-10-03T11:01:19.599Z,0.83
2018-10-03T11:03:21.872Z,1.10
2018-10-03T11:05:24.093Z,1.20
2018-10-03T11:07:26.346Z,1.13
2018-10-03T11:09:28.556Z,1.00
2018-10-03T11:11:30.846Z,1.07
2018-10-03T11:13:33.075Z,1.30
2018-10-03T11:15:35.373Z,1.03
2018-10-03T11:17:37.603Z,1.07
2018-10-03T11:19:39.845Z,0.77
2018-10-03T11:21:42.087Z,1.03
2018-10-03T11:23:44.489Z,0.70
2018-10-03T11:25:46.610Z,0.97
2018-10-03T11:27:48.897Z,1.37
2018-10-03T11:29:51.166Z,1.43
2018-10-03T11:31:53.395Z,1.00
2018-10-03T11:33:55.665Z,0.90
2018-10-03T11:35:57.923Z,1.27
2018-10-03T11:38:00.204Z,2.10
2018-10-03T11:40:02.476Z,0.90
2018-10-03T11:42:04.709Z,1.07
2018-10-03T11:44:06.979Z,1.53
2018-10-03T11:46:09.285Z,1.37
2018-10-03T11:48:11.522Z,0.93
2018-10-03T11:50:13.812Z,1.47
2018-10-03T11:52:17.407Z,0.90
2018-10-03T11:54:19.683Z,0.90
2018-10-03T11:56:21.908Z,1.07
2018-10-03T11:58:24.137Z,1.33
2018-10-03T12:00:26.404Z,0.70
2018-10-03T12:02:28.673Z,1.00
2018-10-03T12:04:30.913Z,1.00
2018-10-03T12:06:33.202Z,1.20
2018-10-03T12:08:35.397Z,1.03
2018-10-03T12:10:37.689Z,1.10
2018-10-03T12:12:40.453Z,1.17
2018-10-03T12:14:42.731Z,0.97
2018-10-03T12:16:44.944Z,1.03
2018-10-03T12:18:47.232Z,1.03
2018-10-03T12:20:49.440Z,1.07
2018-10-03T12:22:51.709Z,1.00
2018-10-03T12:24:53.965Z,1.20
2018-10-03T12:26:56.206Z,1.00
2018-10-03T12:28:58.464Z,0.90
2018-10-03T12:31:00.698Z,0.83
2018-10-03T12:33:02.986Z,0.93
2018-10-03T12:35:05.217Z,0.87
2018-10-03T12:37:07.528Z,0.90
2018-10-03T12:39:09.765Z,1.00
2018-10-03T12:41:11.993Z,1.00
2018-10-03T12:43:14.272Z,1.40
2018-10-03T12:45:16.516Z,0.73
2018-10-03T12:47:18.773Z,1.43
2018-10-03T12:49:21.045Z,1.00
2018-10-03T12:51:23.283Z,1.00
2018-10-03T12:53:25.560Z,0.93
2018-10-03T12:55:27.793Z,1.07
2018-10-03T12:57:30.065Z,0.80
2018-10-03T12:59:32.301Z,0.83
2018-10-03T13:01:34.578Z,0.50
2018-10-03T13:03:36.857Z,0.70
2018-10-03T13:05:39.141Z,1.10
2018-10-03T13:07:41.366Z,1.13
2018-10-03T13:09:43.641Z,0.90
2018-10-03T13:11:45.897Z,0.87
2018-10-03T13:13:48.178Z,0.90
2018-10-03T13:15:50.609Z,1.10
2018-10-03T13:17:52.900Z,1.63
2018-10-03T13:19:55.142Z,0.77
2018-10-03T13:21:57.373Z,0.90
2018-10-03T13:23:59.656Z,0.77
2018-10-03T13:26:01.898Z,0.80
2018-10-03T13:28:04.136Z,1.13
2018-10-03T13:30:06.406Z,0.97
2018-10-03T13:32:08.673Z,1.20
2018-10-03T13:34:10.919Z,0.57
2018-10-03T13:36:13.156Z,1.37
2018-10-03T13:38:15.438Z,0.87
2018-10-03T13:40:17.661Z,1.00
2018-10-03T13:42:19.900Z,0.90
2018-10-03T13:44:22.182Z,0.63
2018-10-03T13:46:24.429Z,0.90
2018-10-03T13:48:26.708Z,0.97
2018-10-03T13:50:28.953Z,0.90
2018-10-03T13:52:31.184Z,0.70
2018-10-03T13:54:33.507Z,0.90
2018-10-03T13:56:35.739Z,0.70
2018-10-03T13:58:37.964Z,0.87
2018-10-03T14:00:41.141Z,0.80
2018-10-03T14:02:43.422Z,0.77
2018-10-03T14:04:45.706Z,1.10
2018-10-03T14:06:47.957Z,1.50
2018-10-03T14:08:50.230Z,0.80
2018-10-03T14:10:52.514Z,1.07
2018-10-03T14:12:54.706Z,1.30
2018-10-03T14:14:56.982Z,1.27
2018-10-03T14:16:59.237Z,1.80
2018-10-03T14:19:01.516Z,0.80
2018-10-03T14:21:03.819Z,1.13
2018-10-03T14:23:06.077Z,1.20
2018-10-03T14:25:08.354Z,0.90
2018-10-03T14:27:10.651Z,1.23
2018-10-03T14:29:12.901Z,14.63
2018-10-03T14:31:15.152Z,18.53
2018-10-03T14:33:17.470Z,57.87
2018-10-03T14:35:19.712Z,164.77
2018-10-03T14:37:21.974Z,166.33
2018-10-03T14:39:24.248Z,143.47
2018-10-03T14:41:26.507Z,144.17
2018-10-03T14:43:28.782Z,134.40
2018-10-03T14:45:31.087Z,170.27
2018-10-03T14:47:33.330Z,217.33
2018-10-03T14:49:35.620Z,286.67
2018-10-03T14:51:37.879Z,285.50
2018-10-03T14:53:40.135Z,297.07
2018-10-03T14:55:42.402Z,264.27
2018-10-03T14:57:44.659Z,253.80
2018-10-03T14:59:46.951Z,237.60
2018-10-03T15:01:49.273Z,329.57
2018-10-03T15:03:51.501Z,542.20
2018-10-03T15:05:53.778Z,329.80
2018-10-03T15:07:56.040Z,366.02
2018-10-03T15:09:58.298Z,397.03
2018-10-03T15:12:00.589Z,376.98
2018-10-03T15:14:02.856Z,356.98
2018-10-03T15:16:05.194Z,361.67
2018-10-03T15:18:07.520Z,355.48
2018-10-03T15:20:09.787Z,336.55
2018-10-03T15:22:12.224Z,338.43
2018-10-03T15:24:14.576Z,328.40
2018-10-03T15:26:16.754Z,433.35
2018-10-03T15:28:19.062Z,356.27
2018-10-03T15:30:21.303Z,378.10
2018-10-03T15:32:23.544Z,410.43
2018-10-03T15:34:25.836Z,402.60
2018-10-03T15:36:28.100Z,386.23
2018-10-03T15:38:30.351Z,392.33
2018-10-03T15:40:32.604Z,372.77
2018-10-03T15:42:34.902Z,384.32
2018-10-03T15:44:37.165Z,403.97
2018-10-03T15:46:39.448Z,457.75
2018-10-03T15:48:41.701Z,492.10
2018-10-03T15:50:43.984Z,486.00
2018-10-03T15:52:46.280Z,479.75
2018-10-03T15:54:48.574Z,471.15
2018-10-03T15:56:50.797Z,448.80
2018-10-03T15:58:53.083Z,444.10
2018-10-03T16:00:55.373Z,488.30
2018-10-03T16:02:57.662Z,495.23
2018-10-03T16:04:59.899Z,334.90
2018-10-03T16:07:02.153Z,415.02
2018-10-03T16:09:04.441Z,437.87
2018-10-03T16:11:06.725Z,447.77
2018-10-03T16:13:08.992Z,482.93
2018-10-03T16:15:11.249Z,447.93
2018-10-03T16:17:13.508Z,436.43
2018-10-03T16:19:15.794Z,433.27
2018-10-03T16:21:18.102Z,384.60
2018-10-03T16:23:20.345Z,371.07
2018-10-03T16:25:22.628Z,405.77
2018-10-03T16:27:24.926Z,387.93
2018-10-03T16:29:27.256Z,390.43
2018-10-03T16:31:29.517Z,426.37
2018-10-03T16:33:31.862Z,455.37
2018-10-03T16:35:34.151Z,481.75
2018-10-03T16:37:36.401Z,489.50
2018-10-03T16:39:38.684Z,476.93
2018-10-03T16:41:40.931Z,481.67
2018-10-03T16:43:43.236Z,510.25
2018-10-03T16:45:45.525Z,522.00
2018-10-03T16:47:47.800Z,514.75
2018-10-03T16:49:50.149Z,520.10
2018-10-03T16:51:52.401Z,510.93
2018-10-03T16:53:54.688Z,484.63
2018-10-03T16:55:56.967Z,479.50
2018-10-03T16:57:59.261Z,508.77
2018-10-03T17:00:01.561Z,554.15
2018-10-03T17:02:03.819Z,634.22
2018-10-03T17:04:06.112Z,613.20
2018-10-03T17:06:08.401Z,624.08
2018-10-03T17:08:10.657Z,610.30
2018-10-03T17:10:12.942Z,596.33
2018-10-03T17:12:15.211Z,598.67
2018-10-03T17:14:17.459Z,631.87
2018-10-03T17:16:19.766Z,659.10
2018-10-03T17:18:22.067Z,643.87
2018-10-03T17:20:24.323Z,645.15
2018-10-03T17:22:26.615Z,637.52
2018-10-03T17:24:28.840Z,632.50
2018-10-03T17:26:31.089Z,620.40
2018-10-03T17:28:33.374Z,633.17
2018-10-03T17:30:35.630Z,608.23
2018-10-03T17:32:37.920Z,651.63
2018-10-03T17:34:40.211Z,659.22
2018-10-03T17:36:42.518Z,665.92
2018-10-03T17:38:44.787Z,661.40
2018-10-03T17:40:47.089Z,646.40
2018-10-03T17:42:49.426Z,660.53
2018-10-03T17:44:51.676Z,690.30
2018-10-03T17:46:53.937Z,700.20
2018-10-03T17:48:56.302Z,689.78
2018-10-03T17:50:58.492Z,691.27
2018-10-03T17:53:00.775Z,652.77
2018-10-03T17:55:03.017Z,664.87
2018-10-03T17:57:05.314Z,649.65
2018-10-03T17:59:07.603Z,663.25
2018-10-03T18:01:09.838Z,668.20
2018-10-03T18:03:12.100Z,658.38
2018-10-03T18:05:14.341Z,707.97
2018-10-03T18:07:16.681Z,694.37
2018-10-03T18:09:18.967Z,720.08
2018-10-03T18:11:21.600Z,687.10
2018-10-03T18:13:23.918Z,700.02
2018-10-03T18:15:26.119Z,697.42
2018-10-03T18:17:28.389Z,689.40
2018-10-03T18:19:30.678Z,692.92
2018-10-03T18:21:32.989Z,645.75
2018-10-03T18:23:35.230Z,676.67
2018-10-03T18:25:37.545Z,668.73
2018-10-03T18:27:39.785Z,661.40
2018-10-03T18:29:42.078Z,637.30
2018-10-03T18:31:44.319Z,683.12
2018-10-03T18:33:46.563Z,697.05
2018-10-03T18:35:48.860Z,691.90
2018-10-03T18:37:51.151Z,701.37
2018-10-03T18:39:53.376Z,709.20
2018-10-03T18:41:55.700Z,698.65
2018-10-03T18:43:57.990Z,696.77
2018-10-03T18:46:00.262Z,698.47
2018-10-03T18:48:02.543Z,688.50
2018-10-03T18:50:04.781Z,684.60
2018-10-03T18:52:07.092Z,616.92
2018-10-03T18:54:10.212Z,696.60
2018-10-03T18:56:12.496Z,657.55
2018-10-03T18:58:14.744Z,623.23
2018-10-03T19:00:17.002Z,650.95
2018-10-03T19:02:19.283Z,619.10
2018-10-03T19:04:21.586Z,634.40
2018-10-03T19:06:23.854Z,626.45
2018-10-03T19:08:26.133Z,625.65
2018-10-03T19:10:28.387Z,620.08
2018-10-03T19:12:30.664Z,638.40
2018-10-03T19:14:32.930Z,641.25
2018-10-03T19:16:35.184Z,648.50
2018-10-03T19:18:37.435Z,646.83
2018-10-03T19:20:39.751Z,639.75
2018-10-03T19:22:42.015Z,628.25
2018-10-03T19:24:44.267Z,641.90
2018-10-03T19:26:46.607Z,633.23
2018-10-03T19:28:48.809Z,625.67
2018-10-03T19:30:51.140Z,622.83
2018-10-03T19:32:53.460Z,633.83
2018-10-03T19:34:55.716Z,592.17
2018-10-03T19:36:57.956Z,670.30
2018-10-03T19:39:00.266Z,662.38
2018-10-03T19:41:02.567Z,671.65
2018-10-03T19:43:04.830Z,649.12
2018-10-03T19:45:07.093Z,663.27
2018-10-03T19:47:09.387Z,649.58
2018-10-03T19:49:11.699Z,651.05
2018-10-03T19:51:14.343Z,623.50
2018-10-03T19:53:16.614Z,603.10
2018-10-03T19:55:18.859Z,633.20
2018-10-03T19:57:21.149Z,632.30
2018-10-03T19:59:23.414Z,621.90
2018-10-03T20:01:25.711Z,623.02
2018-10-03T20:03:27.978Z,604.20
2018-10-03T20:05:30.566Z,612.67
2018-10-03T20:07:32.824Z,562.70
2018-10-03T20:09:35.109Z,587.30
2018-10-03T20:11:37.375Z,592.60
2018-10-03T20:13:39.711Z,591.15
2018-10-03T20:15:41.963Z,588.98
2018-10-03T20:17:44.238Z,580.55
2018-10-03T20:19:46.520Z,563.72
2018-10-03T20:21:48.768Z,560.63
2018-10-03T20:23:51.047Z,562.70
2018-10-03T20:25:53.311Z,551.13
2018-10-03T20:27:55.580Z,571.30
2018-10-03T20:29:57.869Z,613.42
2018-10-03T20:32:00.185Z,621.60
2018-10-03T20:34:02.452Z,622.40
2018-10-03T20:36:05.157Z,616.40
2018-10-03T20:38:07.434Z,607.58
2018-10-03T20:40:09.728Z,633.50
2018-10-03T20:42:11.980Z,661.55
2018-10-03T20:44:14.261Z,642.63
2018-10-03T20:46:16.893Z,639.25
2018-10-03T20:48:19.267Z,668.23
2018-10-03T20:50:21.443Z,617.45
2018-10-03T20:52:23.733Z,622.33
2018-10-03T20:54:26.157Z,628.98
2018-10-03T20:56:28.320Z,631.00
2018-10-03T20:58:30.621Z,640.80
2018-10-03T21:00:32.862Z,621.42
2018-10-03T21:02:35.113Z,618.80
2018-10-03T21:04:37.401Z,630.77
2018-10-03T21:06:39.652Z,651.02
2018-10-03T21:08:41.995Z,631.40
2018-10-03T21:10:44.208Z,649.98
2018-10-03T21:12:46.511Z,643.50
2018-10-03T21:14:48.772Z,665.85
2018-10-03T21:16:51.053Z,691.75
2018-10-03T21:18:53.320Z,695.55
2018-10-03T21:20:55.631Z,683.30
2018-10-03T21:22:57.867Z,671.12
2018-10-03T21:25:00.211Z,677.78
2018-10-03T21:27:02.413Z,673.30
2018-10-03T21:29:04.690Z,636.40
2018-10-03T21:31:06.946Z,658.50
2018-10-03T21:33:09.245Z,639.50
2018-10-03T21:35:11.531Z,660.87
2018-10-03T21:37:13.786Z,715.55
2018-10-03T21:39:16.032Z,678.17
2018-10-03T21:41:18.320Z,661.25
2018-10-03T21:43:20.574Z,681.30
2018-10-03T21:45:22.839Z,678.80
2018-10-03T21:47:25.120Z,679.98
2018-10-03T21:49:27.371Z,667.65
2018-10-03T21:51:29.662Z,657.95
2018-10-03T21:53:31.915Z,650.45
2018-10-03T21:55:34.180Z,623.05
2018-10-03T21:57:36.474Z,664.90
2018-10-03T21:59:38.734Z,652.30
2018-10-03T22:01:40.980Z,851.88
2018-10-03T22:03:43.280Z,688.70
2018-10-03T22:05:45.529Z,665.83
2018-10-03T22:07:47.780Z,675.08
2018-10-03T22:09:50.060Z,680.98
2018-10-03T22:11:52.343Z,663.37
2018-10-03T22:13:54.602Z,654.72
2018-10-03T22:15:56.848Z,674.35
2018-10-03T22:17:59.142Z,694.30
2018-10-03T22:20:01.407Z,653.17
2018-10-03T22:22:03.718Z,672.67
2018-10-03T22:24:05.963Z,684.73
2018-10-03T22:26:08.263Z,709.73
2018-10-03T22:28:10.494Z,735.13
2018-10-03T22:30:12.718Z,746.53
2018-10-03T22:32:15.016Z,684.43
2018-10-03T22:34:17.279Z,702.40
2018-10-03T22:36:19.576Z,696.17
2018-10-03T22:38:21.822Z,710.92
2018-10-03T22:40:24.068Z,690.05
2018-10-03T22:42:26.352Z,658.30
2018-10-03T22:44:28.598Z,689.73
2018-10-03T22:46:30.896Z,696.53
2018-10-03T22:48:33.176Z,691.08
2018-10-03T22:50:35.466Z,702.20
2018-10-03T22:52:37.756Z,683.38
2018-10-03T22:54:40.017Z,669.37
2018-10-03T22:56:42.274Z,690.23
2018-10-03T22:58:44.540Z,680.65
2018-10-03T23:00:46.830Z,693.10
2018-10-03T23:02:49.086Z,678.60
2018-10-03T23:04:51.367Z,683.55
2018-10-03T23:06:53.616Z,681.95
2018-10-03T23:08:55.864Z,689.05
2018-10-03T23:10:58.152Z,665.50
2018-10-03T23:13:00.398Z,670.77
2018-10-03T23:15:02.659Z,663.40
2018-10-03T23:17:04.908Z,677.20
2018-10-03T23:19:07.192Z,623.53
2018-10-03T23:21:09.480Z,619.88
2018-10-03T23:23:11.769Z,662.65
2018-10-03T23:25:14.058Z,649.10
2018-10-03T23:27:16.335Z,645.70
2018-10-03T23:29:18.601Z,648.17
2018-10-03T23:31:20.874Z,627.30
2018-10-03T23:33:23.149Z,647.83
2018-10-03T23:35:25.437Z,627.37
2018-10-03T23:37:27.693Z,639.08
2018-10-03T23:39:29.939Z,645.83
2018-10-03T23:41:32.239Z,610.90
2018-10-03T23:43:34.491Z,629.23
2018-10-03T23:45:36.741Z,632.63
2018-10-03T23:47:39.026Z,637.93
2018-10-03T23:49:41.320Z,626.93
2018-10-03T23:51:43.579Z,615.80
2018-10-03T23:53:45.836Z,610.77
2018-10-03T23:55:48.109Z,619.40
2018-10-03T23:57:50.401Z,606.40
2018-10-03T23:59:52.689Z,607.98
